createdAt,value
2022-12-28T00:01:31.239Z,75.58
2022-12-28T00:04:03.451Z,75.35
2022-12-28T00:06:30.054Z,76.17
2022-12-28T00:08:57.063Z,75.98
2022-12-28T00:11:31.063Z,75.13
2022-12-28T00:13:59.774Z,75.76
2022-12-28T00:16:34.500Z,76.53
2022-12-28T00:19:04.488Z,75.90
2022-12-28T00:21:31.671Z,77.13
2022-12-28T00:23:59.637Z,78.03
2022-12-28T00:26:28.493Z,77.65
2022-12-28T00:29:01.481Z,77.74
2022-12-28T00:31:30.556Z,77.47
2022-12-28T00:33:57.201Z,76.81
2022-12-28T00:36:23.715Z,76.82
2022-12-28T00:38:50.287Z,76.84
2022-12-28T00:41:16.762Z,77.29
2022-12-28T00:43:43.285Z,78.62
2022-12-28T00:46:10.531Z,78.17
2022-12-28T00:48:37.022Z,78.47
2022-12-28T00:51:04.399Z,79.52
2022-12-28T00:53:31.043Z,78.29
2022-12-28T00:56:08.282Z,77.84
2022-12-28T00:58:35.156Z,78.02
2022-12-28T01:01:02.211Z,78.16
2022-12-28T01:03:28.753Z,77.67
2022-12-28T01:05:55.335Z,77.40
2022-12-28T01:08:21.884Z,78.11
2022-12-28T01:10:48.414Z,78.40
2022-12-28T01:13:15.045Z,79.39
2022-12-28T01:15:43.958Z,78.76
2022-12-28T01:18:10.511Z,79.41
2022-12-28T01:20:40.183Z,79.66
2022-12-28T01:23:08.253Z,78.23
2022-12-28T01:25:35.899Z,79.27
2022-12-28T01:28:02.473Z,78.94
2022-12-28T01:30:28.993Z,78.57
2022-12-28T01:32:55.536Z,78.65
2022-12-28T01:35:22.088Z,79.50
2022-12-28T01:37:48.582Z,79.83
2022-12-28T01:40:15.371Z,80.30
2022-12-28T01:42:43.131Z,79.93
2022-12-28T01:45:17.999Z,80.22
2022-12-28T01:47:45.247Z,80.07
2022-12-28T01:50:16.722Z,80.84
2022-12-28T01:52:51.286Z,80.21
2022-12-28T01:55:37.554Z,80.22
2022-12-28T01:58:13.705Z,80.97
2022-12-28T02:00:40.742Z,81.22
2022-12-28T02:03:19.681Z,81.72
2022-12-28T02:05:49.409Z,80.88
2022-12-28T02:08:37.696Z,81.37
2022-12-28T02:11:05.408Z,81.13
2022-12-28T02:13:32.048Z,80.32
2022-12-28T02:15:58.649Z,79.59
2022-12-28T02:18:25.320Z,80.32
2022-12-28T02:21:10.060Z,80.11
2022-12-28T02:23:44.955Z,79.72
2022-12-28T02:26:26.414Z,79.59
2022-12-28T02:29:27.011Z,79.91
2022-12-28T02:32:08.937Z,79.56
2022-12-28T02:34:47.613Z,79.24
2022-12-28T02:37:21.348Z,78.75
2022-12-28T02:40:10.337Z,78.00
2022-12-28T02:42:37.952Z,77.90
2022-12-28T02:45:04.812Z,78.68
2022-12-28T02:47:31.320Z,77.92
2022-12-28T02:49:58.956Z,78.60
2022-12-28T02:52:43.765Z,78.21
2022-12-28T02:55:32.175Z,78.07
2022-12-28T02:58:25.807Z,78.91
2022-12-28T03:01:24.511Z,77.52
2022-12-28T03:04:06.277Z,77.06
2022-12-28T03:07:11.810Z,76.59
2022-12-28T03:09:40.164Z,76.24
2022-12-28T03:12:10.717Z,76.06
2022-12-28T03:14:45.293Z,76.81
2022-12-28T03:17:12.633Z,76.37
2022-12-28T03:19:44.490Z,75.70
2022-12-28T03:22:12.168Z,75.23
2022-12-28T03:24:40.528Z,75.17
2022-12-28T03:27:09.920Z,75.37
2022-12-28T03:29:41.062Z,75.06
2022-12-28T03:32:08.795Z,75.48
2022-12-28T03:34:35.805Z,75.24
2022-12-28T03:37:13.494Z,75.27
2022-12-28T03:40:03.248Z,75.57
2022-12-28T03:42:43.883Z,75.85
2022-12-28T03:45:44.943Z,75.03
2022-12-28T03:48:07.076Z,75.23
2022-12-28T03:50:38.616Z,74.65
2022-12-28T03:53:05.119Z,74.82
2022-12-28T03:55:31.652Z,74.85
2022-12-28T03:57:58.229Z,74.83
2022-12-28T04:00:24.703Z,75.11
2022-12-28T04:02:51.267Z,74.58
2022-12-28T04:05:17.808Z,74.73
2022-12-28T04:07:44.263Z,75.12
2022-12-28T04:10:11.684Z,75.15
2022-12-28T04:12:38.152Z,75.77
2022-12-28T04:15:05.501Z,76.42
2022-12-28T04:17:32.201Z,76.34
2022-12-28T04:19:58.677Z,75.98
2022-12-28T04:22:25.232Z,76.91
2022-12-28T04:24:51.686Z,76.84
2022-12-28T04:27:18.182Z,78.04
2022-12-28T04:29:44.664Z,77.29
2022-12-28T04:32:11.111Z,77.32
2022-12-28T04:34:39.147Z,77.61
2022-12-28T04:37:08.421Z,78.27
2022-12-28T04:39:56.334Z,78.09
2022-12-28T04:42:21.432Z,77.53
2022-12-28T04:44:47.931Z,78.58
2022-12-28T04:47:14.505Z,77.75
2022-12-28T04:49:41.019Z,78.15
2022-12-28T04:52:07.479Z,78.08
2022-12-28T04:54:33.960Z,79.35
2022-12-28T04:57:00.553Z,79.24
2022-12-28T04:59:27.017Z,78.90
2022-12-28T05:01:53.609Z,79.17
2022-12-28T05:04:20.142Z,78.47
2022-12-28T05:06:46.648Z,78.49
2022-12-28T05:09:13.133Z,79.83
2022-12-28T05:11:39.591Z,79.03
2022-12-28T05:14:06.063Z,78.89
2022-12-28T05:16:32.646Z,77.51
2022-12-28T05:19:00.261Z,76.89
2022-12-28T05:21:28.269Z,77.38
2022-12-28T05:23:55.284Z,75.50
2022-12-28T05:26:24.853Z,74.69
2022-12-28T05:28:51.622Z,75.19
2022-12-28T05:31:20.720Z,75.18
2022-12-28T05:33:47.587Z,75.00
2022-12-28T05:36:23.319Z,75.01
2022-12-28T05:38:50.224Z,74.25
2022-12-28T05:41:22.843Z,72.59
2022-12-28T05:43:49.536Z,72.47
2022-12-28T05:46:23.453Z,72.60
2022-12-28T05:48:53.121Z,72.54
2022-12-28T05:51:21.240Z,72.83
2022-12-28T05:53:47.934Z,73.24
2022-12-28T05:56:21.093Z,73.36
2022-12-28T05:58:58.740Z,72.93
2022-12-28T06:01:28.015Z,72.50
2022-12-28T06:03:57.011Z,73.03
2022-12-28T06:06:23.737Z,73.11
2022-12-28T06:08:50.380Z,72.90
2022-12-28T06:11:18.729Z,72.86
2022-12-28T06:13:45.419Z,73.35
2022-12-28T06:16:23.552Z,73.32
2022-12-28T06:18:51.051Z,74.20
2022-12-28T06:21:20.423Z,75.07
2022-12-28T06:23:47.549Z,75.03
2022-12-28T06:26:17.843Z,75.22
2022-12-28T06:28:45.227Z,75.02
2022-12-28T06:31:19.993Z,75.18
2022-12-28T06:33:47.553Z,74.65
2022-12-28T06:36:20.212Z,74.21
2022-12-28T06:38:47.884Z,74.39
2022-12-28T06:41:15.251Z,74.73
2022-12-28T06:43:43.132Z,74.58
2022-12-28T06:46:11.700Z,74.31
2022-12-28T06:48:38.905Z,75.17
2022-12-28T06:51:08.420Z,75.66
2022-12-28T06:53:38.617Z,75.04
2022-12-28T06:56:19.558Z,75.18
2022-12-28T06:58:49.396Z,75.03
2022-12-28T07:01:33.750Z,74.04
2022-12-28T07:04:01.333Z,73.87
2022-12-28T07:06:29.355Z,74.43
2022-12-28T07:09:01.130Z,74.49
2022-12-28T07:11:27.889Z,74.96
2022-12-28T07:13:56.386Z,74.41
2022-12-28T07:16:24.309Z,74.33
2022-12-28T07:18:50.890Z,73.90
2022-12-28T07:21:19.981Z,74.09
2022-12-28T07:23:46.669Z,75.61
2022-12-28T07:26:18.514Z,75.81
2022-12-28T07:28:46.307Z,74.65
2022-12-28T07:31:18.428Z,74.34
2022-12-28T07:33:45.900Z,74.24
2022-12-28T07:36:14.851Z,74.81
2022-12-28T07:38:42.101Z,74.65
2022-12-28T07:41:29.532Z,74.01
2022-12-28T07:43:56.136Z,73.56
2022-12-28T07:46:28.277Z,73.76
2022-12-28T07:48:55.668Z,73.43
2022-12-28T07:51:30.429Z,73.05
2022-12-28T07:53:58.307Z,73.07
2022-12-28T07:56:26.851Z,72.50
2022-12-28T07:58:55.579Z,72.26
2022-12-28T08:01:26.722Z,73.08
2022-12-28T08:03:55.189Z,73.22
2022-12-28T08:06:22.109Z,72.09
2022-12-28T08:08:50.597Z,71.71
2022-12-28T08:11:19.566Z,71.01
2022-12-28T08:13:47.760Z,71.10
2022-12-28T08:16:16.089Z,70.10
2022-12-28T08:18:42.767Z,70.12
2022-12-28T08:21:12.972Z,70.83
2022-12-28T08:23:39.527Z,71.37
2022-12-28T08:26:17.760Z,70.50
2022-12-28T08:28:45.674Z,70.29
2022-12-28T08:31:15.387Z,68.35
2022-12-28T08:33:42.475Z,68.46
2022-12-28T08:36:09.643Z,69.00
2022-12-28T08:38:37.311Z,69.18
2022-12-28T08:41:06.392Z,69.62
2022-12-28T08:43:33.866Z,69.71
2022-12-28T08:46:02.408Z,69.53
2022-12-28T08:48:29.923Z,69.12
2022-12-28T08:51:04.487Z,69.32
2022-12-28T08:53:31.387Z,69.73
2022-12-28T08:56:09.943Z,69.56
2022-12-28T08:58:40.274Z,69.09
2022-12-28T09:01:43.040Z,68.23
2022-12-28T09:04:16.637Z,67.65
2022-12-28T09:06:43.939Z,67.00
2022-12-28T09:09:13.432Z,68.40
2022-12-28T09:11:40.865Z,68.27
2022-12-28T09:14:09.787Z,68.42
2022-12-28T09:16:37.562Z,68.69
2022-12-28T09:19:05.774Z,67.31
2022-12-28T09:21:38.361Z,67.12
2022-12-28T09:24:05.641Z,66.60
2022-12-28T09:26:35.700Z,67.96
2022-12-28T09:29:04.541Z,68.57
2022-12-28T09:31:32.579Z,67.96
2022-12-28T09:36:46.080Z,67.24
2022-12-28T09:39:18.226Z,68.26
2022-12-28T09:41:52.584Z,66.97
2022-12-28T09:44:46.071Z,66.98
2022-12-28T09:47:30.959Z,66.92
2022-12-28T09:50:15.665Z,67.32
2022-12-28T09:52:51.319Z,67.19
2022-12-28T09:55:19.051Z,66.67
2022-12-28T09:57:48.647Z,66.96
2022-12-28T10:00:18.776Z,66.00
2022-12-28T10:02:49.748Z,65.74
2022-12-28T10:05:16.398Z,66.53
2022-12-28T10:07:43.244Z,67.43
2022-12-28T10:10:16.862Z,67.55
2022-12-28T10:12:44.456Z,67.49
2022-12-28T10:15:15.606Z,68.40
2022-12-28T10:17:42.947Z,67.70
2022-12-28T10:20:31.066Z,66.42
2022-12-28T10:22:58.753Z,66.30
2022-12-28T10:25:26.685Z,66.83
2022-12-28T10:27:54.022Z,67.37
2022-12-28T10:30:25.373Z,67.05
2022-12-28T10:33:03.387Z,67.38
2022-12-28T10:35:38.428Z,66.35
2022-12-28T10:38:21.320Z,67.00
2022-12-28T10:41:03.498Z,66.49
2022-12-28T10:43:33.176Z,67.11
2022-12-28T10:46:00.457Z,66.31
2022-12-28T10:48:38.673Z,66.81
2022-12-28T10:51:13.399Z,66.05
2022-12-28T10:53:39.837Z,64.08
2022-12-28T10:56:19.856Z,64.24
2022-12-28T10:58:48.254Z,63.12
2022-12-28T11:01:15.120Z,62.83
2022-12-28T11:03:57.697Z,62.73
2022-12-28T11:06:29.505Z,62.16
2022-12-28T11:09:14.300Z,61.63
2022-12-28T11:11:42.802Z,62.96
2022-12-28T11:14:31.169Z,62.24
2022-12-28T11:16:58.006Z,61.30
2022-12-28T11:19:25.211Z,61.13
2022-12-28T11:21:52.120Z,61.69
2022-12-28T11:24:19.168Z,60.77
2022-12-28T11:26:48.460Z,61.79
2022-12-28T11:29:16.234Z,61.62
2022-12-28T11:31:47.853Z,61.74
2022-12-28T11:34:20.061Z,61.74
2022-12-28T11:36:47.209Z,60.63
2022-12-28T11:39:25.699Z,60.74
2022-12-28T11:42:27.733Z,60.88
2022-12-28T11:44:39.928Z,62.19
2022-12-28T11:47:29.899Z,61.31
2022-12-28T11:50:34.386Z,62.26
2022-12-28T11:53:01.839Z,58.97
2022-12-28T11:55:48.382Z,57.96
2022-12-28T11:58:40.877Z,55.67
2022-12-28T12:01:29.024Z,57.68
2022-12-28T12:03:58.595Z,56.43
2022-12-28T12:06:43.457Z,55.40
2022-12-28T12:09:22.148Z,56.58
2022-12-28T12:11:50.523Z,56.76
2022-12-28T12:14:28.658Z,57.60
2022-12-28T12:17:07.724Z,56.46
2022-12-28T12:19:38.070Z,55.38
2022-12-28T12:22:13.055Z,54.47
2022-12-28T12:25:20.899Z,53.67
2022-12-28T12:28:12.981Z,52.94
2022-12-28T12:30:42.475Z,53.23
2022-12-28T12:33:15.628Z,52.74
2022-12-28T12:36:08.389Z,53.37
2022-12-28T12:38:44.732Z,54.04
2022-12-28T12:41:38.653Z,53.73
2022-12-28T12:44:40.485Z,54.47
2022-12-28T12:47:25.336Z,53.79
2022-12-28T12:50:29.595Z,53.76
2022-12-28T12:53:05.240Z,53.75
2022-12-28T12:55:53.902Z,53.05
2022-12-28T12:58:30.638Z,53.14
2022-12-28T13:01:25.324Z,53.59
2022-12-28T13:03:54.386Z,51.89
2022-12-28T13:06:24.584Z,51.56
2022-12-28T13:09:05.601Z,50.41
2022-12-28T13:11:36.473Z,50.41
2022-12-28T13:14:03.092Z,51.71
2022-12-28T13:16:30.201Z,51.22
2022-12-28T13:19:04.593Z,50.28
2022-12-28T13:21:44.630Z,50.57
2022-12-28T13:24:25.037Z,49.89
2022-12-28T13:26:53.909Z,51.05
2022-12-28T13:29:22.353Z,52.98
2022-12-28T13:31:49.108Z,52.18
2022-12-28T13:34:26.934Z,51.80
2022-12-28T13:37:00.091Z,51.49
2022-12-28T13:39:39.991Z,52.34
2022-12-28T13:42:19.216Z,51.60
2022-12-28T13:44:55.279Z,52.47
2022-12-28T13:47:33.634Z,52.75
2022-12-28T13:50:18.719Z,52.73
2022-12-28T13:52:47.981Z,51.88
2022-12-28T13:55:27.427Z,52.53
2022-12-28T13:57:59.690Z,52.09
2022-12-28T14:00:27.421Z,52.36
2022-12-28T14:02:55.259Z,52.17
2022-12-28T14:05:24.819Z,51.90
2022-12-28T14:07:53.174Z,52.50
2022-12-28T14:10:19.868Z,51.65
2022-12-28T14:12:48.050Z,51.86
2022-12-28T14:15:15.702Z,52.37
2022-12-28T14:17:42.854Z,52.22
2022-12-28T14:20:09.928Z,51.97
2022-12-28T14:22:43.081Z,52.65
2022-12-28T14:25:12.256Z,54.00
2022-12-28T14:27:42.995Z,54.15
2022-12-28T14:30:26.763Z,54.67
2022-12-28T14:32:56.216Z,55.11
2022-12-28T14:35:25.639Z,55.32
2022-12-28T14:37:57.128Z,54.82
2022-12-28T14:40:28.530Z,55.69
2022-12-28T14:42:58.457Z,55.37
2022-12-28T14:46:07.253Z,55.36
2022-12-28T14:48:31.189Z,55.82
2022-12-28T14:51:17.300Z,56.18
2022-12-28T14:53:45.111Z,55.39
2022-12-28T14:56:15.014Z,54.44
2022-12-28T14:58:51.390Z,55.27
2022-12-28T15:01:19.089Z,54.93
2022-12-28T15:03:56.324Z,55.64
2022-12-28T15:06:26.343Z,54.84
2022-12-28T15:08:55.208Z,54.25
2022-12-28T15:11:23.722Z,55.84
2022-12-28T15:13:50.409Z,57.37
2022-12-28T15:16:18.521Z,56.50
2022-12-28T15:18:45.496Z,54.66
2022-12-28T15:21:13.407Z,52.80
2022-12-28T15:23:39.992Z,54.41
2022-12-28T15:26:08.463Z,51.52
2022-12-28T15:28:35.035Z,50.49
2022-12-28T15:31:07.767Z,50.46
2022-12-28T15:33:35.245Z,50.09
2022-12-28T15:36:07.116Z,52.35
2022-12-28T15:38:36.405Z,53.85
2022-12-28T15:41:02.906Z,54.93
2022-12-28T15:43:29.394Z,54.75
2022-12-28T15:45:57.612Z,55.85
2022-12-28T15:48:24.152Z,53.83
2022-12-28T15:50:50.657Z,53.01
2022-12-28T15:53:17.457Z,52.88
2022-12-28T15:55:44.192Z,53.99
2022-12-28T15:58:10.806Z,52.01
2022-12-28T16:00:38.663Z,53.44
2022-12-28T16:03:08.109Z,53.57
2022-12-28T16:05:34.700Z,53.60
2022-12-28T16:08:01.229Z,53.24
2022-12-28T16:10:27.759Z,51.07
2022-12-28T16:12:54.298Z,51.49
2022-12-28T16:15:20.767Z,51.86
2022-12-28T16:17:56.804Z,52.26
2022-12-28T16:20:23.584Z,52.60
2022-12-28T16:22:50.059Z,52.44
2022-12-28T16:25:16.662Z,53.58
2022-12-28T16:27:43.201Z,53.14
2022-12-28T16:30:10.073Z,55.04
2022-12-28T16:32:36.573Z,53.89
2022-12-28T16:35:03.303Z,53.37
2022-12-28T16:37:31.290Z,53.04
2022-12-28T16:39:57.803Z,53.91
2022-12-28T16:42:27.343Z,53.88
2022-12-28T16:44:56.436Z,52.33
2022-12-28T16:47:23.069Z,52.54
2022-12-28T16:49:49.617Z,53.31
2022-12-28T16:52:16.175Z,52.80
2022-12-28T16:54:42.692Z,54.05
2022-12-28T16:57:09.169Z,54.59
2022-12-28T16:59:35.645Z,54.47
2022-12-28T17:02:02.343Z,54.08
2022-12-28T17:04:28.968Z,54.55
2022-12-28T17:06:55.520Z,55.01
2022-12-28T17:09:22.022Z,54.67
2022-12-28T17:11:49.705Z,54.57
2022-12-28T17:14:29.216Z,54.68
2022-12-28T17:17:02.659Z,54.62
2022-12-28T17:19:29.327Z,54.18
2022-12-28T17:21:55.806Z,54.73
2022-12-28T17:24:22.269Z,55.20
2022-12-28T17:26:48.785Z,55.81
2022-12-28T17:29:15.308Z,55.32
2022-12-28T17:31:43.680Z,55.03
2022-12-28T17:34:10.794Z,54.78
2022-12-28T17:36:37.380Z,55.03
2022-12-28T17:39:04.050Z,56.22
2022-12-28T17:41:30.516Z,55.15
2022-12-28T17:43:58.570Z,57.21
2022-12-28T17:46:26.754Z,54.92
2022-12-28T17:48:54.582Z,55.09
2022-12-28T17:51:21.442Z,54.47
2022-12-28T17:53:47.893Z,55.57
2022-12-28T17:56:18.194Z,54.24
2022-12-28T17:58:45.076Z,53.54
2022-12-28T18:01:12.276Z,55.30
2022-12-28T18:03:38.986Z,54.62
2022-12-28T18:06:06.206Z,54.58
2022-12-28T18:08:32.983Z,55.52
2022-12-28T18:10:59.505Z,55.72
2022-12-28T18:13:25.974Z,55.64
2022-12-28T18:15:52.555Z,55.87
2022-12-28T18:18:21.893Z,55.68
2022-12-28T18:21:05.164Z,56.19
2022-12-28T18:23:34.925Z,56.24
2022-12-28T18:26:08.631Z,56.42
2022-12-28T18:28:35.733Z,54.93
2022-12-28T18:31:03.116Z,56.32
2022-12-28T18:33:30.256Z,55.29
2022-12-28T18:35:57.142Z,55.35
2022-12-28T18:38:23.668Z,54.03
2022-12-28T18:40:54.633Z,53.80
2022-12-28T18:43:21.250Z,55.57
2022-12-28T18:46:02.160Z,53.01
2022-12-28T18:48:30.028Z,53.98
2022-12-28T18:51:01.639Z,54.76
2022-12-28T18:53:29.943Z,54.66
2022-12-28T18:56:04.749Z,54.59
2022-12-28T18:58:33.284Z,55.01
2022-12-28T19:01:04.976Z,55.60
2022-12-28T19:03:31.960Z,55.44
2022-12-28T19:06:02.832Z,54.60
2022-12-28T19:08:32.417Z,54.72
2022-12-28T19:11:00.983Z,55.81
2022-12-28T19:13:28.720Z,55.18
2022-12-28T19:15:55.646Z,56.12
2022-12-28T19:18:22.158Z,56.34
2022-12-28T19:20:49.367Z,55.79
2022-12-28T19:23:18.406Z,56.90
2022-12-28T19:25:45.043Z,57.21
2022-12-28T19:28:11.970Z,57.01
2022-12-28T19:30:38.541Z,57.87
2022-12-28T19:33:05.034Z,56.86
2022-12-28T19:35:31.477Z,59.03
2022-12-28T19:37:58.108Z,57.95
2022-12-28T19:40:24.651Z,58.75
2022-12-28T19:42:51.135Z,57.94
2022-12-28T19:45:17.785Z,57.59
2022-12-28T19:47:44.302Z,57.32
2022-12-28T19:50:10.987Z,57.25
2022-12-28T19:52:37.623Z,57.00
2022-12-28T19:55:05.737Z,56.80
2022-12-28T19:57:32.567Z,56.64
2022-12-28T19:59:59.117Z,57.94
2022-12-28T20:02:25.966Z,56.39
2022-12-28T20:04:52.662Z,56.16
2022-12-28T20:07:19.536Z,56.83
2022-12-28T20:09:49.498Z,56.32
2022-12-28T20:12:16.197Z,56.37
2022-12-28T20:14:43.584Z,56.69
2022-12-28T20:17:10.606Z,56.39
2022-12-28T20:19:37.175Z,56.86
2022-12-28T20:22:06.351Z,57.33
2022-12-28T20:24:33.066Z,57.90
2022-12-28T20:27:01.781Z,57.38
2022-12-28T20:29:30.650Z,57.26
2022-12-28T20:31:57.264Z,57.57
2022-12-28T20:34:23.819Z,57.74
2022-12-28T20:36:50.423Z,57.27
2022-12-28T20:39:16.938Z,57.69
2022-12-28T20:41:43.771Z,57.30
2022-12-28T20:44:12.683Z,57.49
2022-12-28T20:46:39.736Z,57.86
2022-12-28T20:49:06.352Z,58.25
2022-12-28T20:51:33.639Z,57.86
2022-12-28T20:54:00.165Z,58.24
2022-12-28T20:56:27.256Z,58.63
2022-12-28T20:58:53.906Z,59.32
2022-12-28T21:01:21.061Z,59.53
2022-12-28T21:03:48.385Z,59.08
2022-12-28T21:06:15.224Z,59.48
2022-12-28T21:08:41.816Z,59.47
2022-12-28T21:11:08.291Z,59.82
2022-12-28T21:13:39.235Z,59.59
2022-12-28T21:16:09.466Z,60.45
2022-12-28T21:18:39.434Z,60.01
2022-12-28T21:21:06.204Z,61.02
2022-12-28T21:23:33.353Z,61.28
2022-12-28T21:26:04.676Z,62.19
2022-12-28T21:28:31.323Z,61.60
2022-12-28T21:30:58.167Z,61.70
2022-12-28T21:33:24.819Z,61.15
2022-12-28T21:36:15.119Z,61.68
2022-12-28T21:38:43.124Z,61.95
2022-12-28T21:41:14.318Z,61.79
2022-12-28T21:43:42.151Z,61.09
2022-12-28T21:46:12.314Z,61.94
2022-12-28T21:48:39.724Z,62.18
2022-12-28T21:51:13.851Z,62.73
2022-12-28T21:53:40.334Z,62.95
2022-12-28T21:56:13.375Z,62.50
2022-12-28T21:58:45.023Z,62.63
2022-12-28T22:01:12.264Z,63.29
2022-12-28T22:03:39.128Z,63.89
2022-12-28T22:06:07.397Z,65.23
2022-12-28T22:08:34.024Z,65.42
2022-12-28T22:11:00.468Z,65.60
2022-12-28T22:13:26.971Z,65.85
2022-12-28T22:15:56.852Z,66.50
2022-12-28T22:21:10.891Z,65.90
2022-12-28T22:23:38.022Z,66.36
2022-12-28T22:26:04.914Z,66.94
2022-12-28T22:28:31.668Z,66.28
2022-12-28T22:30:58.218Z,66.45
2022-12-28T22:33:24.851Z,66.31
2022-12-28T22:35:51.380Z,66.45
2022-12-28T22:38:17.831Z,65.51
2022-12-28T22:40:44.329Z,65.45
2022-12-28T22:43:10.868Z,63.92
2022-12-28T22:45:37.553Z,63.98
2022-12-28T22:48:04.237Z,64.44
2022-12-28T22:50:30.793Z,64.35
2022-12-28T22:52:57.384Z,64.31
2022-12-28T22:55:23.930Z,64.27
2022-12-28T22:57:50.377Z,64.40
2022-12-28T23:00:16.948Z,64.32
2022-12-28T23:02:46.427Z,64.22
2022-12-28T23:05:13.327Z,65.00
2022-12-28T23:07:39.830Z,65.77
2022-12-28T23:10:07.713Z,65.52
2022-12-28T23:12:34.187Z,65.74
2022-12-28T23:15:00.753Z,65.35
2022-12-28T23:17:27.413Z,65.77
2022-12-28T23:19:53.889Z,64.92
2022-12-28T23:22:22.752Z,64.68
2022-12-28T23:24:58.301Z,65.00
2022-12-28T23:27:29.763Z,66.44
2022-12-28T23:29:56.305Z,66.49
2022-12-28T23:32:22.960Z,67.34
2022-12-28T23:34:49.921Z,68.36
2022-12-28T23:37:17.876Z,68.57
2022-12-28T23:39:44.503Z,70.04
2022-12-28T23:42:10.959Z,69.84
2022-12-28T23:44:37.535Z,69.93
2022-12-28T23:47:04.249Z,70.12
2022-12-28T23:49:30.709Z,69.66
2022-12-28T23:51:57.198Z,69.35
2022-12-28T23:54:23.667Z,70.12
2022-12-28T23:56:50.183Z,70.87
2022-12-28T23:59:16.647Z,71.67
